Time;durP1;ratioP1;P1;durP2;ratioP2;P2;SDS_P1;SDS_P2;PMS_P1;PMS_P2;Temp;Humidity;BMP_temperature;BMP_pressure;BME280_temperature;BME280_humidity;BME280_pressure;Samples;Min_cycle;Max_cycle;Signal;HPM_P1;HPM_P2
2023/04/06 00:00:02;;;;;;;;;;;;;;;-0.53;100.00;95874.56;10509820;28;3129;-74
2023/04/06 00:05:05;;;;;;;;;;;;;;;-0.65;100.00;95871.72;10512988;28;2356;-71
2023/04/06 00:10:07;;;;;;;;;;;;;;;-0.70;100.00;95868.88;10509045;28;2387;-73
2023/04/06 00:15:09;;;;;;;;;;;;;;;-0.75;100.00;95863.38;10511906;28;2734;-71
2023/04/06 00:20:12;;;;;;;;;;;;;;;-0.75;100.00;95852.03;10509617;28;2442;-71
2023/04/06 00:25:15;;;;;;;;;;;;;;;-0.82;100.00;95859.94;10512654;28;2714;-72
2023/04/06 00:30:18;;;;;;;;;;;;;;;-0.80;100.00;95857.09;10511015;28;2710;-73
2023/04/06 00:35:24;;;;;;;;;;;;;;;-0.84;100.00;95854.81;10496427;28;2344;-73
2023/04/06 00:40:28;;;;;;;;;;;;;;;-0.90;100.00;95852.19;10510591;28;2319;-72
2023/04/06 00:45:30;;;;;;;;;;;;;;;-0.89;100.00;95859.06;10502968;28;2665;-75
2023/04/06 00:50:35;;;;;;;;;;;;;;;-0.84;100.00;95857.47;10509359;28;2322;-73
2023/04/06 00:55:37;;;;;;;;;;;;;;;-0.89;100.00;95861.72;10509459;28;2714;-73
2023/04/06 01:00:41;;;;;;;;;;;;;;;-0.87;100.00;95843.88;10504654;28;2288;-74
2023/04/06 01:05:43;;;;;;;;;;;;;;;-0.89;100.00;95846.72;10506763;28;2722;-72
2023/04/06 01:10:46;;;;;;;;;;;;;;;-1.00;100.00;95857.03;10503422;28;2822;-72
2023/04/06 01:15:49;;;;;;;;;;;;;;;-1.02;100.00;95856.41;10509479;28;2723;-71
2023/04/06 01:20:51;;;;;;;;;;;;;;;-1.06;100.00;95853.38;10514733;28;3241;-73
2023/04/06 01:25:54;;;;;;;;;;;;;;;-1.10;100.00;95850.31;10522763;28;3126;-72
2023/04/06 01:30:57;;;;;;;;;;;;;;;-1.11;100.00;95850.50;10509358;28;2758;-71
2023/04/06 01:36:00;;;;;;;;;;;;;;;-1.21;100.00;95842.16;10512023;28;2683;-71
2023/04/06 01:41:02;;;;;;;;;;;;;;;-1.29;100.00;95842.34;10519134;28;3148;-71
2023/04/06 01:46:06;;;;;;;;;;;;;;;-1.41;100.00;95836.81;10514031;28;3215;-71
2023/04/06 01:51:08;;;;;;;;;;;;;;;-1.43;100.00;95836.19;10521047;28;2946;-71
2023/04/06 01:56:11;;;;;;;;;;;;;;;-1.46;100.00;95833.97;10540725;28;2312;-72
2023/04/06 02:01:13;;;;;;;;;;;;;;;-1.46;100.00;95832.16;10528409;28;3179;-72
2023/04/06 02:06:17;;;;;;;;;;;;;;;-1.56;100.00;95830.88;10525397;28;2686;-71
2023/04/06 02:11:19;;;;;;;;;;;;;;;-1.56;100.00;95830.88;10507818;28;2679;-71
2023/04/06 02:16:22;;;;;;;;;;;;;;;-1.62;100.00;95840.38;10509119;28;2706;-71
2023/04/06 02:21:26;;;;;;;;;;;;;;;-1.60;100.00;95827.00;10508170;28;3089;-70
2023/04/06 02:26:29;;;;;;;;;;;;;;;-1.63;100.00;95826.38;10510931;28;2326;-73
2023/04/06 02:31:32;;;;;;;;;;;;;;;-1.68;100.00;95827.97;10510624;28;3128;-72
2023/04/06 02:36:34;;;;;;;;;;;;;;;-1.74;100.00;95829.56;10516936;28;2384;-72
2023/04/06 02:41:37;;;;;;;;;;;;;;;-1.80;100.00;95822.44;10504588;28;2572;-71
2023/04/06 02:46:39;;;;;;;;;;;;;;;-1.80;100.00;95825.09;10507908;28;3116;-71
2023/04/06 02:51:42;;;;;;;;;;;;;;;-1.82;100.00;95827.09;10511321;28;3133;-70
2023/04/06 02:56:45;;;;;;;;;;;;;;;-1.88;100.00;95819.16;10519052;28;2834;-71
2023/04/06 03:01:48;;;;;;;;;;;;;;;-1.86;100.00;95817.97;10510848;28;2320;-73
2023/04/06 03:06:51;;;;;;;;;;;;;;;-1.87;100.00;95826.06;10514574;28;2702;-71
2023/04/06 03:11:53;;;;;;;;;;;;;;;-1.90;100.00;95832.53;10509751;28;2933;-73
2023/04/06 03:16:56;;;;;;;;;;;;;;;-1.97;100.00;95829.88;10502803;28;2339;-70
2023/04/06 03:21:59;;;;;;;;;;;;;;;-1.92;100.00;95824.81;10506671;28;2753;-71
2023/04/06 03:27:02;;;;;;;;;;;;;;;-1.89;100.00;95826.25;10528583;28;2853;-71
2023/04/06 03:32:05;;;;;;;;;;;;;;;-1.91;100.00;95829.09;10515391;28;2694;-70
2023/04/06 03:37:09;;;;;;;;;;;;;;;-1.89;100.00;95828.91;10505929;28;3211;-71
2023/04/06 03:42:12;;;;;;;;;;;;;;;-1.77;100.00;95822.06;10512746;28;3288;-71
2023/04/06 03:47:16;;;;;;;;;;;;;;;-1.64;100.00;95827.41;10514627;28;2792;-72
2023/04/06 03:52:19;;;;;;;;;;;;;;;-1.43;100.00;95829.09;10506239;28;2278;-70
2023/04/06 03:57:22;;;;;;;;;;;;;;;-1.23;100.00;95841.53;10506799;28;3176;-71
2023/04/06 04:02:35;;;;;;;;;;;;;;;-1.07;100.00;95841.19;10500297;28;2332;-71
2023/04/06 04:07:37;;;;;;;;;;;;;;;-1.04;100.00;95847.88;10504598;28;3132;-70
2023/04/06 04:12:39;;;;;;;;;;;;;;;-1.12;100.00;95847.06;10495148;28;3315;-71
2023/04/06 04:17:46;;;;;;;;;;;;;;;-1.17;100.00;95849.47;10513060;28;2295;-70
2023/04/06 04:22:49;;;;;;;;;;;;;;;-1.18;100.00;95852.31;10507468;28;3156;-71
2023/04/06 04:27:52;;;;;;;;;;;;;;;-1.17;100.00;95854.75;10510467;28;3133;-73
2023/04/06 04:33:03;;;;;;;;;;;;;;;-1.18;100.00;95858.41;10511376;28;3188;-73
2023/04/06 04:38:06;;;;;;;;;;;;;;;-1.22;100.00;95853.72;10505100;28;2829;-71
2023/04/06 04:43:08;;;;;;;;;;;;;;;-1.30;100.00;95854.72;10507381;28;2331;-71
2023/04/06 04:48:10;;;;;;;;;;;;;;;-1.29;100.00;95861.59;10499574;28;2306;-72
2023/04/06 04:53:14;;;;;;;;;;;;;;;-1.29;100.00;95858.16;10519557;28;3184;-72
2023/04/06 04:58:18;;;;;;;;;;;;;;;-1.11;100.00;95859.22;10516702;28;2312;-72
2023/04/06 05:03:21;;;;;;;;;;;;;;;-0.93;100.00;95858.69;10499112;28;2737;-74
2023/04/06 05:08:23;;;;;;;;;;;;;;;-0.69;100.00;95859.94;10521861;28;3171;-73
2023/04/06 05:13:27;;;;;;;;;;;;;;;-0.45;100.00;95858.53;10525961;28;3175;-72
2023/04/06 05:18:29;;;;;;;;;;;;;;;-0.13;100.00;95864.81;10517844;28;3317;-72
2023/04/06 05:23:32;;;;;;;;;;;;;;;0.10;100.00;95861.75;10512563;28;2695;-75
2023/04/06 05:28:35;;;;;;;;;;;;;;;0.43;100.00;95858.22;10513151;28;2696;-72
2023/04/06 05:33:38;;;;;;;;;;;;;;;1.11;100.00;95853.28;10520251;28;3263;-72
2023/04/06 05:38:40;;;;;;;;;;;;;;;1.38;100.00;95853.91;10519448;28;2319;-72
2023/04/06 05:43:42;;;;;;;;;;;;;;;1.93;100.00;95855.97;10512675;28;3240;-74
2023/04/06 05:48:46;;;;;;;;;;;;;;;2.32;100.00;95854.78;10517863;28;3817;-72
2023/04/06 05:53:49;;;;;;;;;;;;;;;2.61;100.00;95854.06;10516853;28;2311;-72
2023/04/06 05:58:52;;;;;;;;;;;;;;;2.71;100.00;95859.66;10510713;28;2674;-72
2023/04/06 06:03:55;;;;;;;;;;;;;;;2.72;100.00;95855.94;10517093;28;3144;-71
2023/04/06 06:09:00;;;;;;;;;;;;;;;2.91;100.00;95853.28;10519320;28;3128;-72
2023/04/06 06:14:03;;;;;;;;;;;;;;;3.03;100.00;95851.50;10517733;28;2695;-74
2023/04/06 06:19:07;;;;;;;;;;;;;;;3.27;99.34;95847.09;10509746;28;2335;-73
2023/04/06 06:24:11;;;;;;;;;;;;;;;3.53;98.68;95859.19;10514715;28;2363;-73
2023/04/06 06:29:13;;;;;;;;;;;;;;;3.66;95.58;95851.03;10507966;28;2407;-73
2023/04/06 06:34:15;;;;;;;;;;;;;;;3.75;92.00;95847.00;10506840;28;2347;-73
2023/04/06 06:39:18;;;;;;;;;;;;;;;3.89;92.05;95858.25;10513008;28;3214;-72
2023/04/06 06:44:21;;;;;;;;;;;;;;;4.27;90.33;95855.16;10502137;28;2831;-73
2023/04/06 06:49:24;;;;;;;;;;;;;;;4.63;87.71;95863.09;10516693;28;2353;-73
2023/04/06 06:54:27;;;;;;;;;;;;;;;4.62;87.34;95867.59;10514169;28;2866;-73
2023/04/06 06:59:29;;;;;;;;;;;;;;;4.70;84.15;95863.78;10513635;28;2269;-73
2023/04/06 07:04:33;;;;;;;;;;;;;;;4.71;83.62;95858.22;10510295;28;3316;-73
2023/04/06 07:09:35;;;;;;;;;;;;;;;4.74;82.11;95862.28;10515682;28;2854;-74
2023/04/06 07:14:42;;;;;;;;;;;;;;;5.28;78.26;95874.28;10509002;28;2516;-71
2023/04/06 07:19:45;;;;;;;;;;;;;;;6.29;71.20;95861.09;10511436;28;2831;-74
2023/04/06 07:24:47;;;;;;;;;;;;;;;6.31;67.21;95859.00;10494629;28;3382;-74
2023/04/06 07:29:51;;;;;;;;;;;;;;;5.81;67.51;95864.31;10512947;28;3334;-74
2023/04/06 07:34:54;;;;;;;;;;;;;;;6.73;63.48;95859.31;10509206;28;2883;-73
2023/04/06 07:40:06;;;;;;;;;;;;;;;6.85;61.22;95867.22;10512866;28;3449;-74
2023/04/06 07:45:09;;;;;;;;;;;;;;;6.96;59.00;95857.47;10512425;28;2342;-73
2023/04/06 07:50:11;;;;;;;;;;;;;;;6.96;58.83;95871.63;10525865;27;3457;-73
2023/04/06 07:55:14;;;;;;;;;;;;;;;7.35;58.92;95858.19;10511075;28;3462;-73
2023/04/06 08:00:16;;;;;;;;;;;;;;;7.76;54.65;95853.25;10516341;28;2826;-74
2023/04/06 08:05:19;;;;;;;;;;;;;;;8.39;53.48;95854.31;10514673;28;2830;-74
2023/04/06 08:10:22;;;;;;;;;;;;;;;8.06;53.59;95856.19;10503902;28;2902;-74
2023/04/06 08:15:25;;;;;;;;;;;;;;;8.17;51.96;95853.59;10518176;28;3350;-73
2023/04/06 08:20:31;;;;;;;;;;;;;;;8.72;48.21;95853.22;10515577;28;3318;-75
2023/04/06 08:25:33;;;;;;;;;;;;;;;8.98;48.32;95864.06;10515660;28;2878;-73
2023/04/06 08:30:46;;;;;;;;;;;;;;;9.36;45.55;95852.16;10519256;28;2905;-71
2023/04/06 08:35:49;;;;;;;;;;;;;;;9.77;44.81;95853.03;10519186;28;3342;-74
2023/04/06 08:40:52;;;;;;;;;;;;;;;9.34;44.89;95859.63;10525276;28;2302;-72
2023/04/06 08:45:54;;;;;;;;;;;;;;;9.54;43.60;95856.19;10521410;28;3287;-73
2023/04/06 08:50:58;;;;;;;;;;;;;;;9.37;43.23;95854.56;10498067;28;2835;-72
2023/04/06 08:56:00;;;;;;;;;;;;;;;8.89;46.42;95858.38;10523153;28;3656;-70
2023/04/06 09:01:03;;;;;;;;;;;;;;;8.92;43.98;95853.31;10517235;28;2927;-74
2023/04/06 09:06:06;;;;;;;;;;;;;;;9.10;44.36;95857.44;10515056;28;2909;-73
2023/04/06 09:11:08;;;;;;;;;;;;;;;8.62;42.95;95847.78;10518671;28;3316;-73
2023/04/06 09:16:11;;;;;;;;;;;;;;;8.55;43.72;95841.84;10514789;28;2911;-72
2023/04/06 09:21:13;;;;;;;;;;;;;;;8.90;43.35;95844.72;10517325;28;3022;-72
2023/04/06 09:26:16;;;;;;;;;;;;;;;8.30;43.87;95842.47;10516355;28;3402;-73
2023/04/06 09:31:18;;;;;;;;;;;;;;;8.89;43.97;95847.66;10518184;28;2941;-73
2023/04/06 09:36:22;;;;;;;;;;;;;;;9.02;43.40;95846.38;10515538;28;2323;-72
2023/04/06 09:41:25;;;;;;;;;;;;;;;8.79;42.60;95842.25;10518465;28;3115;-73
2023/04/06 09:46:28;;;;;;;;;;;;;;;9.06;42.64;95845.59;10513767;28;2819;-73
2023/04/06 09:51:32;;;;;;;;;;;;;;;9.50;42.70;95826.44;10513894;28;2337;-73
2023/04/06 09:56:37;;;;;;;;;;;;;;;9.81;42.07;95829.16;10519570;28;2309;-72
2023/04/06 10:01:49;;;;;;;;;;;;;;;9.79;40.90;95823.25;10512135;28;2293;-73
2023/04/06 10:06:53;;;;;;;;;;;;;;;9.03;41.19;95831.91;10516931;28;3383;-72
2023/04/06 10:11:55;;;;;;;;;;;;;;;8.94;41.66;95824.38;10513084;28;3409;-72
2023/04/06 10:16:58;;;;;;;;;;;;;;;8.94;42.00;95818.19;10495915;28;2326;-73
2023/04/06 10:22:00;;;;;;;;;;;;;;;9.50;40.38;95809.53;10514726;28;2830;-73
2023/04/06 10:27:03;;;;;;;;;;;;;;;9.19;39.86;95822.84;10513807;28;3300;-75
2023/04/06 10:32:06;;;;;;;;;;;;;;;9.19;39.32;95817.47;10512720;28;3335;-73
2023/04/06 10:37:09;;;;;;;;;;;;;;;9.55;39.28;95799.59;10517687;28;3255;-73
2023/04/06 10:42:12;;;;;;;;;;;;;;;9.87;39.43;95798.56;10519953;28;3250;-73
2023/04/06 10:47:15;;;;;;;;;;;;;;;9.21;39.87;95800.03;10507881;28;3197;-73
2023/04/06 10:52:17;;;;;;;;;;;;;;;9.77;39.43;95790.50;10505005;28;2929;-71
2023/04/06 10:57:20;;;;;;;;;;;;;;;9.70;38.81;95788.06;10492928;28;2254;-75
2023/04/06 11:02:22;;;;;;;;;;;;;;;9.03;40.83;95786.31;10512374;28;3271;-75
2023/04/06 11:07:26;;;;;;;;;;;;;;;8.68;41.20;95793.16;10500987;28;2886;-75
2023/04/06 11:12:31;;;;;;;;;;;;;;;9.00;40.73;95784.16;10510956;28;2340;-73
2023/04/06 11:17:33;;;;;;;;;;;;;;;9.49;39.74;95776.53;10505748;28;3322;-71
2023/04/06 11:22:36;;;;;;;;;;;;;;;10.00;38.08;95771.16;10503358;28;2816;-71
2023/04/06 11:27:39;;;;;;;;;;;;;;;9.58;38.59;95766.84;10511538;28;3306;-70
2023/04/06 11:32:43;;;;;;;;;;;;;;;9.80;38.67;95752.34;10505680;28;2895;-72
2023/04/06 11:37:45;;;;;;;;;;;;;;;10.58;37.85;95754.72;10510739;28;3341;-71
2023/04/06 11:42:49;;;;;;;;;;;;;;;10.87;37.18;95744.91;10508087;28;2946;-72
2023/04/06 11:47:52;;;;;;;;;;;;;;;10.57;38.36;95736.97;10505514;28;3322;-74
2023/04/06 11:52:54;;;;;;;;;;;;;;;10.25;39.06;95748.88;10504151;28;3291;-73
2023/04/06 11:57:57;;;;;;;;;;;;;;;9.46;40.03;95751.00;10514870;28;2835;-72
2023/04/06 12:03:00;;;;;;;;;;;;;;;9.63;39.94;95750.75;10508239;28;3260;-75
2023/04/06 12:08:03;;;;;;;;;;;;;;;9.60;39.45;95740.53;10511285;28;2377;-71
2023/04/06 12:13:05;;;;;;;;;;;;;;;9.97;38.98;95728.72;10513663;28;2838;-71
2023/04/06 12:18:07;;;;;;;;;;;;;;;10.61;37.46;95720.00;10514496;28;2336;-73
2023/04/06 12:23:20;;;;;;;;;;;;;;;10.18;36.25;95719.59;10508313;28;3326;-75
2023/04/06 12:28:26;;;;;;;;;;;;;;;10.24;36.69;95723.06;10509272;28;2958;-72
2023/04/06 12:33:29;;;;;;;;;;;;;;;9.57;38.41;95730.38;10510522;28;2340;-72
2023/04/06 12:38:32;;;;;;;;;;;;;;;9.65;39.57;95713.72;10508441;28;3272;-72
2023/04/06 12:43:35;;;;;;;;;;;;;;;9.79;39.56;95718.53;10505772;28;2831;-73
2023/04/06 12:48:39;;;;;;;;;;;;;;;9.65;39.67;95710.22;10524222;28;2305;-72
2023/04/06 12:53:43;;;;;;;;;;;;;;;10.19;37.09;95709.63;10522862;28;3299;-73
2023/04/06 12:58:46;;;;;;;;;;;;;;;10.26;36.68;95700.25;10510475;28;3390;-73
2023/04/06 13:03:49;;;;;;;;;;;;;;;10.79;36.32;95697.88;10504685;28;2318;-73
2023/04/06 13:08:52;;;;;;;;;;;;;;;11.30;35.50;95684.13;10515564;28;2874;-74
2023/04/06 13:13:54;;;;;;;;;;;;;;;11.35;34.34;95694.88;10512414;28;2858;-74
2023/04/06 13:18:58;;;;;;;;;;;;;;;11.04;35.02;95683.50;10496710;28;2318;-73
2023/04/06 13:24:00;;;;;;;;;;;;;;;11.42;35.31;95686.47;10512965;28;3558;-75
2023/04/06 13:29:04;;;;;;;;;;;;;;;11.37;34.83;95681.91;10507306;28;2317;-75
2023/04/06 13:34:07;;;;;;;;;;;;;;;11.22;34.63;95679.34;10514143;28;2855;-75
2023/04/06 13:39:09;;;;;;;;;;;;;;;11.07;35.23;95682.16;10524945;28;3358;-75
2023/04/06 13:44:13;;;;;;;;;;;;;;;11.25;34.59;95672.59;10524951;28;2388;-75
2023/04/06 13:49:16;;;;;;;;;;;;;;;10.28;36.60;95681.97;10503402;28;3432;-75
2023/04/06 13:54:19;;;;;;;;;;;;;;;9.73;37.15;95675.63;10523781;28;3307;-76
2023/04/06 13:59:25;;;;;;;;;;;;;;;10.17;36.68;95671.47;10519215;28;3292;-74
2023/04/06 14:04:28;;;;;;;;;;;;;;;10.46;36.99;95669.81;10521456;28;2835;-75
2023/04/06 14:09:31;;;;;;;;;;;;;;;10.61;36.81;95668.13;10523493;28;2408;-76
2023/04/06 14:14:34;;;;;;;;;;;;;;;10.91;36.08;95651.84;10520481;28;2858;-77
2023/04/06 14:19:37;;;;;;;;;;;;;;;11.14;36.26;95647.66;10521691;28;3282;-77
2023/04/06 14:24:39;;;;;;;;;;;;;;;11.51;34.69;95657.06;10516372;28;2238;-76
2023/04/06 14:29:43;;;;;;;;;;;;;;;12.14;32.96;95648.94;10507966;28;3445;-77
2023/04/06 14:34:45;;;;;;;;;;;;;;;12.16;33.77;95641.41;10511463;28;3296;-76
2023/04/06 14:39:48;;;;;;;;;;;;;;;11.68;33.81;95651.25;10501924;28;2898;-76
2023/04/06 14:44:50;;;;;;;;;;;;;;;11.18;35.04;95646.00;10513696;28;2863;-82
2023/04/06 14:49:53;;;;;;;;;;;;;;;11.42;35.31;95645.31;10511090;28;3335;-73
2023/04/06 14:54:56;;;;;;;;;;;;;;;10.81;35.56;95647.34;10504787;28;2835;-74
2023/04/06 14:59:59;;;;;;;;;;;;;;;11.27;35.79;95641.66;10513064;28;3471;-74
2023/04/06 15:05:03;;;;;;;;;;;;;;;11.34;35.02;95638.63;10514424;28;2417;-74
2023/04/06 15:10:06;;;;;;;;;;;;;;;11.12;35.27;95636.38;10519354;28;3304;-74
2023/04/06 15:15:11;;;;;;;;;;;;;;;10.93;35.70;95636.22;10505572;28;2250;-75
2023/04/06 15:20:14;;;;;;;;;;;;;;;10.90;34.95;95634.09;10517222;28;3131;-78
2023/04/06 15:25:17;;;;;;;;;;;;;;;10.77;34.54;95630.16;10518007;28;3003;-75
2023/04/06 15:30:21;;;;;;;;;;;;;;;11.21;34.58;95634.69;10521465;28;3315;-74
2023/04/06 15:35:23;;;;;;;;;;;;;;;11.11;34.75;95637.44;10514967;28;2911;-74
2023/04/06 15:40:28;;;;;;;;;;;;;;;11.15;34.62;95635.81;10516594;28;2342;-72
2023/04/06 15:45:31;;;;;;;;;;;;;;;11.03;34.71;95627.28;10523808;28;3354;-74
2023/04/06 15:50:34;;;;;;;;;;;;;;;11.24;34.58;95626.06;10516313;28;3405;-74
2023/04/06 15:55:37;;;;;;;;;;;;;;;10.99;34.96;95621.66;10512403;28;2914;-73
2023/04/06 16:00:49;;;;;;;;;;;;;;;10.54;34.16;95630.81;10508302;28;3272;-73
2023/04/06 16:05:53;;;;;;;;;;;;;;;10.11;35.09;95633.09;10511339;28;3401;-72
2023/04/06 16:11:00;;;;;;;;;;;;;;;9.82;35.64;95634.78;10513353;28;3278;-71
2023/04/06 16:16:03;;;;;;;;;;;;;;;9.82;36.84;95629.44;10512034;28;3315;-71
2023/04/06 16:21:06;;;;;;;;;;;;;;;9.49;37.40;95631.63;10515280;28;2386;-73
2023/04/06 16:26:10;;;;;;;;;;;;;;;9.54;37.19;95630.78;10517401;28;2965;-74
2023/04/06 16:31:12;;;;;;;;;;;;;;;9.55;37.91;95633.22;10515725;28;2839;-74
2023/04/06 16:36:14;;;;;;;;;;;;;;;9.56;36.93;95639.41;10520641;28;2965;-75
2023/04/06 16:41:17;;;;;;;;;;;;;;;9.54;36.16;95634.28;10520370;28;2844;-74
2023/04/06 16:46:20;;;;;;;;;;;;;;;9.38;36.41;95641.56;10525250;28;3341;-73
2023/04/06 16:51:23;;;;;;;;;;;;;;;9.21;36.80;95646.38;10529253;28;2882;-74
2023/04/06 16:56:26;;;;;;;;;;;;;;;8.99;36.78;95643.94;10544413;27;2862;-74
2023/04/06 17:01:28;;;;;;;;;;;;;;;8.88;37.99;95643.13;10527588;28;2367;-74
2023/04/06 17:06:32;;;;;;;;;;;;;;;8.80;38.72;95635.59;10547238;27;2846;-77
2023/04/06 17:11:35;;;;;;;;;;;;;;;8.51;39.09;95637.13;10524914;28;3017;-75
2023/04/06 17:16:48;;;;;;;;;;;;;;;8.49;39.40;95650.81;10526032;28;3302;-75
2023/04/06 17:21:50;;;;;;;;;;;;;;;8.39;39.11;95650.75;10524560;28;3357;-75
2023/04/06 17:26:55;;;;;;;;;;;;;;;8.19;40.06;95656.81;10523902;28;2897;-77
2023/04/06 17:31:57;;;;;;;;;;;;;;;8.02;40.70;95653.53;10524242;28;3416;-71
2023/04/06 17:37:00;;;;;;;;;;;;;;;7.83;41.43;95653.16;10524755;28;2361;-75
2023/04/06 17:42:04;;;;;;;;;;;;;;;7.48;41.93;95651.84;10523133;28;3320;-72
2023/04/06 17:47:06;;;;;;;;;;;;;;;7.30;43.21;95669.09;10514931;28;2344;-72
2023/04/06 17:52:10;;;;;;;;;;;;;;;7.42;43.00;95665.44;10501155;28;2808;-72
2023/04/06 17:57:12;;;;;;;;;;;;;;;7.31;44.13;95673.38;10498451;28;2843;-72
2023/04/06 18:02:15;;;;;;;;;;;;;;;7.12;45.20;95677.47;10498526;28;3279;-73
2023/04/06 18:07:18;;;;;;;;;;;;;;;6.90;46.01;95682.09;10501259;28;2302;-70
2023/04/06 18:12:22;;;;;;;;;;;;;;;6.48;47.66;95693.41;10506145;28;3306;-76
2023/04/06 18:17:24;;;;;;;;;;;;;;;6.40;48.53;95691.16;10504338;28;2360;-77
2023/04/06 18:22:27;;;;;;;;;;;;;;;6.27;49.84;95684.34;10503750;28;2914;-77
2023/04/06 18:27:30;;;;;;;;;;;;;;;5.96;50.84;95704.47;10507409;28;3268;-76
2023/04/06 18:32:35;;;;;;;;;;;;;;;5.79;52.67;95704.50;10505240;28;2871;-76
2023/04/06 18:37:38;;;;;;;;;;;;;;;5.64;54.04;95705.06;10502843;28;3399;-77
2023/04/06 18:42:40;;;;;;;;;;;;;;;5.71;53.47;95702.22;10505885;28;2326;-76
2023/04/06 18:47:43;;;;;;;;;;;;;;;5.79;54.22;95715.16;10505706;28;2753;-75
2023/04/06 18:52:46;;;;;;;;;;;;;;;5.47;56.73;95719.44;10513512;28;3307;-75
2023/04/06 18:58:00;;;;;;;;;;;;;;;5.31;57.85;95721.88;10506618;28;2433;-77
2023/04/06 19:03:02;;;;;;;;;;;;;;;5.26;60.07;95723.66;10507931;28;2902;-76
2023/04/06 19:08:06;;;;;;;;;;;;;;;5.11;61.32;95734.84;10514329;28;2305;-76
2023/04/06 19:13:09;;;;;;;;;;;;;;;5.07;63.95;95733.72;10504991;28;3315;-76
2023/04/06 19:18:11;;;;;;;;;;;;;;;5.01;64.44;95729.34;10510231;28;3314;-75
2023/04/06 19:23:14;;;;;;;;;;;;;;;4.96;68.56;95742.56;10510369;28;2381;-75
2023/04/06 19:28:16;;;;;;;;;;;;;;;5.14;64.94;95740.50;10516109;28;2957;-71
2023/04/06 19:33:18;;;;;;;;;;;;;;;4.97;66.88;95733.53;10509243;28;3343;-72
2023/04/06 19:38:20;;;;;;;;;;;;;;;5.07;65.96;95739.84;10503886;28;2842;-72
2023/04/06 19:43:24;;;;;;;;;;;;;;;4.78;69.54;95741.72;10497744;28;2828;-73
2023/04/06 19:48:26;;;;;;;;;;;;;;;4.64;71.81;95745.69;10499502;28;2938;-71
2023/04/06 19:53:28;;;;;;;;;;;;;;;4.57;73.98;95750.34;10504636;28;2867;-71
2023/04/06 19:58:31;;;;;;;;;;;;;;;4.53;76.48;95749.22;10504533;28;2306;-72
2023/04/06 20:03:35;;;;;;;;;;;;;;;4.58;78.32;95747.47;10512462;28;2309;-72
2023/04/06 20:08:37;;;;;;;;;;;;;;;4.94;78.10;95748.13;10516421;28;2969;-72
2023/04/06 20:13:40;;;;;;;;;;;;;;;5.23;75.54;95743.59;10518082;28;2876;-73
2023/04/06 20:18:43;;;;;;;;;;;;;;;5.11;76.62;95741.00;10512670;28;2929;-72
2023/04/06 20:23:45;;;;;;;;;;;;;;;5.24;76.68;95739.88;10513137;28;3271;-73
2023/04/06 20:28:47;;;;;;;;;;;;;;;5.26;76.52;95737.78;10508297;28;2936;-71
2023/04/06 20:33:50;;;;;;;;;;;;;;;5.04;78.20;95739.53;10510967;28;2918;-72
2023/04/06 20:38:52;;;;;;;;;;;;;;;5.06;78.94;95740.09;10506192;28;2965;-72
2023/04/06 20:43:55;;;;;;;;;;;;;;;4.98;79.58;95727.16;10499423;28;2831;-72
2023/04/06 20:48:57;;;;;;;;;;;;;;;4.85;81.88;95729.06;10508850;28;3274;-73
2023/04/06 20:54:00;;;;;;;;;;;;;;;4.85;82.14;95726.41;10502415;28;3212;-73
2023/04/06 20:59:03;;;;;;;;;;;;;;;4.75;84.21;95726.22;10501327;28;2912;-72
2023/04/06 21:04:07;;;;;;;;;;;;;;;4.48;86.37;95728.63;10512606;28;2337;-72
2023/04/06 21:09:09;;;;;;;;;;;;;;;4.38;87.56;95725.75;10527961;28;2852;-71
2023/04/06 21:14:12;;;;;;;;;;;;;;;4.30;88.83;95726.13;10508088;28;2331;-72
2023/04/06 21:19:14;;;;;;;;;;;;;;;4.56;86.08;95730.91;10503218;28;2896;-73
2023/04/06 21:24:17;;;;;;;;;;;;;;;4.77;84.09;95720.63;10512737;28;3274;-72
2023/04/06 21:29:21;;;;;;;;;;;;;;;4.97;83.40;95717.56;10510854;28;3189;-72
2023/04/06 21:34:23;;;;;;;;;;;;;;;5.07;81.90;95718.53;10508878;28;3479;-73
2023/04/06 21:39:26;;;;;;;;;;;;;;;5.19;82.75;95709.66;10527476;28;2835;-71
2023/04/06 21:44:30;;;;;;;;;;;;;;;5.30;81.14;95716.78;10519709;28;2339;-72
2023/04/06 21:49:32;;;;;;;;;;;;;;;5.35;79.87;95703.56;10524021;28;2887;-73
2023/04/06 21:54:35;;;;;;;;;;;;;;;5.37;78.63;95702.25;10522809;28;2855;-72
2023/04/06 21:59:37;;;;;;;;;;;;;;;5.45;79.08;95708.22;10528299;28;3366;-72
2023/04/06 22:04:39;;;;;;;;;;;;;;;5.48;80.27;95710.41;10523783;28;2390;-71
2023/04/06 22:09:48;;;;;;;;;;;;;;;5.50;78.80;95705.66;10509718;28;2899;-73
2023/04/06 22:14:52;;;;;;;;;;;;;;;5.47;78.15;95701.63;10525539;28;2349;-73
2023/04/06 22:19:55;;;;;;;;;;;;;;;5.48;78.35;95702.44;10523112;28;2283;-72
2023/04/06 22:25:00;;;;;;;;;;;;;;;5.46;77.81;95691.19;10525966;28;3428;-71
2023/04/06 22:30:03;;;;;;;;;;;;;;;5.39;77.62;95692.16;10516592;28;3327;-71
2023/04/06 22:35:05;;;;;;;;;;;;;;;5.43;77.33;95685.28;10514409;28;2275;-71
2023/04/06 22:40:09;;;;;;;;;;;;;;;5.34;77.43;95686.75;10513876;28;3306;-73
2023/04/06 22:45:11;;;;;;;;;;;;;;;5.32;77.65;95672.03;10519160;28;2957;-72
2023/04/06 22:50:15;;;;;;;;;;;;;;;5.29;78.10;95670.69;10509995;28;2895;-72
2023/04/06 22:55:17;;;;;;;;;;;;;;;5.29;76.07;95673.34;10506190;28;2362;-71
2023/04/06 23:00:23;;;;;;;;;;;;;;;5.21;76.69;95664.94;10520728;28;2286;-72
2023/04/06 23:05:26;;;;;;;;;;;;;;;5.19;78.27;95667.84;10514313;28;3320;-71
2023/04/06 23:10:29;;;;;;;;;;;;;;;5.21;77.28;95663.06;10516250;28;3439;-73
2023/04/06 23:15:32;;;;;;;;;;;;;;;5.11;77.43;95671.72;10513561;28;3316;-74
2023/04/06 23:20:35;;;;;;;;;;;;;;;5.04;77.49;95654.28;10516973;28;2902;-77
2023/04/06 23:25:39;;;;;;;;;;;;;;;4.86;79.87;95661.44;10525676;28;3407;-75
2023/04/06 23:30:43;;;;;;;;;;;;;;;4.74;81.83;95655.38;10523718;28;3358;-73
2023/04/06 23:35:45;;;;;;;;;;;;;;;4.47;86.09;95651.69;10522360;28;2354;-71
2023/04/06 23:40:49;;;;;;;;;;;;;;;4.37;88.42;95651.47;10524581;28;2353;-71
2023/04/06 23:45:51;;;;;;;;;;;;;;;4.19;91.87;95661.25;10525843;28;2657;-72
2023/04/06 23:50:55;;;;;;;;;;;;;;;4.13;92.78;95654.19;10515672;28;3295;-72
2023/04/06 23:55:57;;;;;;;;;;;;;;;4.10;93.49;95654.69;10515193;28;3457;-73
